East Highgate, Vermont
Current Conditions -  °F | °C
As of 12:55 PM on Saturday 25 Oct 2014 (Local Time) from KFSO Reporting Station
Scattered Clouds Scattered Clouds  
Wind Chill: 55°   Ceiling: Unl
Heat Index: 55°   Visibility: 10mi
Dew Point: 42°   Wind: 8mph
Humidity: 63%   Direction: 170°S
Pressure: 29.63"   Gusts: NA
Location:  44.958°N, 72.9958°W
Report Text: KFSO 251655Z AUTO 17007KT 140V200 10SM SCT038 SCT110 13/06 A2963 RMK AO2 T01260057
Loading
Personal Weather Stations






























Interactive Weather Map
Tropical Storm Tracking
New forecast layout! Learn more

10-Day Weather Forecast

Advertisements
Track Severe Weather on mobile